sensor_id;sensor_type;location;lat;lon;timestamp;temperature;humidity
58933;DHT22;44716;51.022;6.818;2023-10-09T00:01:06;24.10;56.80
58933;DHT22;44716;51.022;6.818;2023-10-09T00:03:39;24.10;56.80
58933;DHT22;44716;51.022;6.818;2023-10-09T00:06:05;24.10;56.90
58933;DHT22;44716;51.022;6.818;2023-10-09T00:08:30;24.10;56.90
58933;DHT22;44716;51.022;6.818;2023-10-09T00:10:56;24.10;56.90
58933;DHT22;44716;51.022;6.818;2023-10-09T00:13:25;24.10;56.90
58933;DHT22;44716;51.022;6.818;2023-10-09T00:16:03;24.10;56.90
58933;DHT22;44716;51.022;6.818;2023-10-09T00:18:34;24.10;56.90
58933;DHT22;44716;51.022;6.818;2023-10-09T00:21:00;24.10;56.90
58933;DHT22;44716;51.022;6.818;2023-10-09T00:23:36;24.10;56.90
58933;DHT22;44716;51.022;6.818;2023-10-09T00:26:02;24.00;56.90
58933;DHT22;44716;51.022;6.818;2023-10-09T00:28:38;24.00;56.90
58933;DHT22;44716;51.022;6.818;2023-10-09T00:31:06;24.00;56.90
58933;DHT22;44716;51.022;6.818;2023-10-09T00:33:35;24.10;56.90
58933;DHT22;44716;51.022;6.818;2023-10-09T00:36:05;24.00;56.80
58933;DHT22;44716;51.022;6.818;2023-10-09T00:38:43;24.10;56.90
58933;DHT22;44716;51.022;6.818;2023-10-09T00:41:14;24.10;56.80
58933;DHT22;44716;51.022;6.818;2023-10-09T00:43:48;24.00;56.70
58933;DHT22;44716;51.022;6.818;2023-10-09T00:46:24;24.10;56.70
58933;DHT22;44716;51.022;6.818;2023-10-09T00:48:54;24.10;56.60
58933;DHT22;44716;51.022;6.818;2023-10-09T00:51:21;24.10;56.60
58933;DHT22;44716;51.022;6.818;2023-10-09T00:53:48;24.00;56.70
58933;DHT22;44716;51.022;6.818;2023-10-09T00:56:17;24.10;56.50
58933;DHT22;44716;51.022;6.818;2023-10-09T00:58:54;24.10;56.50
58933;DHT22;44716;51.022;6.818;2023-10-09T01:01:46;24.10;56.50
58933;DHT22;44716;51.022;6.818;2023-10-09T01:04:30;24.10;56.40
58933;DHT22;44716;51.022;6.818;2023-10-09T01:07:02;24.10;56.40
58933;DHT22;44716;51.022;6.818;2023-10-09T01:09:40;24.10;56.30
58933;DHT22;44716;51.022;6.818;2023-10-09T01:12:09;24.10;56.20
58933;DHT22;44716;51.022;6.818;2023-10-09T01:14:45;24.10;56.20
58933;DHT22;44716;51.022;6.818;2023-10-09T01:17:10;24.10;56.20
58933;DHT22;44716;51.022;6.818;2023-10-09T01:19:37;24.10;56.00
58933;DHT22;44716;51.022;6.818;2023-10-09T01:22:03;24.10;56.00
58933;DHT22;44716;51.022;6.818;2023-10-09T01:24:30;24.10;56.10
58933;DHT22;44716;51.022;6.818;2023-10-09T01:26:57;24.10;56.00
58933;DHT22;44716;51.022;6.818;2023-10-09T01:29:24;24.10;56.00
58933;DHT22;44716;51.022;6.818;2023-10-09T01:31:56;24.10;56.00
58933;DHT22;44716;51.022;6.818;2023-10-09T01:34:22;24.10;56.00
58933;DHT22;44716;51.022;6.818;2023-10-09T01:36:52;24.10;56.00
58933;DHT22;44716;51.022;6.818;2023-10-09T01:39:21;24.10;56.00
58933;DHT22;44716;51.022;6.818;2023-10-09T01:41:49;24.10;55.90
58933;DHT22;44716;51.022;6.818;2023-10-09T01:44:17;24.10;56.00
58933;DHT22;44716;51.022;6.818;2023-10-09T01:46:44;24.10;56.10
58933;DHT22;44716;51.022;6.818;2023-10-09T01:49:12;24.10;55.90
58933;DHT22;44716;51.022;6.818;2023-10-09T01:51:47;24.00;56.00
58933;DHT22;44716;51.022;6.818;2023-10-09T01:54:14;24.10;56.10
58933;DHT22;44716;51.022;6.818;2023-10-09T01:56:59;24.10;56.00
58933;DHT22;44716;51.022;6.818;2023-10-09T01:59:31;24.10;56.00
58933;DHT22;44716;51.022;6.818;2023-10-09T02:01:56;24.10;55.90
58933;DHT22;44716;51.022;6.818;2023-10-09T02:04:23;24.10;55.90
58933;DHT22;44716;51.022;6.818;2023-10-09T02:06:49;24.10;55.90
58933;DHT22;44716;51.022;6.818;2023-10-09T02:09:18;24.10;55.90
58933;DHT22;44716;51.022;6.818;2023-10-09T02:11:48;24.00;55.90
58933;DHT22;44716;51.022;6.818;2023-10-09T02:14:13;24.00;55.90
58933;DHT22;44716;51.022;6.818;2023-10-09T02:16:47;24.00;55.90
58933;DHT22;44716;51.022;6.818;2023-10-09T02:19:31;24.00;55.90
58933;DHT22;44716;51.022;6.818;2023-10-09T02:22:02;24.00;55.80
58933;DHT22;44716;51.022;6.818;2023-10-09T02:24:40;24.00;55.90
58933;DHT22;44716;51.022;6.818;2023-10-09T02:27:35;24.10;55.90
58933;DHT22;44716;51.022;6.818;2023-10-09T02:30:19;24.10;55.80
58933;DHT22;44716;51.022;6.818;2023-10-09T02:32:52;24.10;55.80
58933;DHT22;44716;51.022;6.818;2023-10-09T02:35:19;24.00;55.80
58933;DHT22;44716;51.022;6.818;2023-10-09T02:37:54;24.10;55.80
58933;DHT22;44716;51.022;6.818;2023-10-09T02:40:19;24.00;55.80
58933;DHT22;44716;51.022;6.818;2023-10-09T02:42:51;24.00;55.80
58933;DHT22;44716;51.022;6.818;2023-10-09T02:45:16;24.00;55.80
58933;DHT22;44716;51.022;6.818;2023-10-09T02:47:44;24.00;55.80
58933;DHT22;44716;51.022;6.818;2023-10-09T02:50:14;24.00;55.70
58933;DHT22;44716;51.022;6.818;2023-10-09T02:52:48;24.00;55.70
58933;DHT22;44716;51.022;6.818;2023-10-09T02:55:24;24.00;55.60
58933;DHT22;44716;51.022;6.818;2023-10-09T02:57:51;24.00;55.80
58933;DHT22;44716;51.022;6.818;2023-10-09T03:00:21;24.00;55.70
58933;DHT22;44716;51.022;6.818;2023-10-09T03:02:55;24.00;55.70
58933;DHT22;44716;51.022;6.818;2023-10-09T03:05:26;24.00;55.70
58933;DHT22;44716;51.022;6.818;2023-10-09T03:07:54;24.00;55.70
58933;DHT22;44716;51.022;6.818;2023-10-09T03:10:23;24.00;55.70
58933;DHT22;44716;51.022;6.818;2023-10-09T03:12:49;24.00;55.70
58933;DHT22;44716;51.022;6.818;2023-10-09T03:15:21;23.90;55.70
58933;DHT22;44716;51.022;6.818;2023-10-09T03:17:47;24.00;55.80
58933;DHT22;44716;51.022;6.818;2023-10-09T03:20:16;24.00;55.70
58933;DHT22;44716;51.022;6.818;2023-10-09T03:22:43;23.90;55.70
58933;DHT22;44716;51.022;6.818;2023-10-09T03:25:10;23.90;55.70
58933;DHT22;44716;51.022;6.818;2023-10-09T03:27:42;24.00;55.70
58933;DHT22;44716;51.022;6.818;2023-10-09T03:30:13;24.00;55.60
58933;DHT22;44716;51.022;6.818;2023-10-09T03:32:57;24.00;55.70
58933;DHT22;44716;51.022;6.818;2023-10-09T03:35:25;24.00;55.60
58933;DHT22;44716;51.022;6.818;2023-10-09T03:37:53;24.00;55.60
58933;DHT22;44716;51.022;6.818;2023-10-09T03:40:22;24.00;55.70
58933;DHT22;44716;51.022;6.818;2023-10-09T03:42:47;24.00;55.60
58933;DHT22;44716;51.022;6.818;2023-10-09T03:45:14;24.00;55.70
58933;DHT22;44716;51.022;6.818;2023-10-09T03:47:52;24.00;55.60
58933;DHT22;44716;51.022;6.818;2023-10-09T03:50:26;24.00;55.60
58933;DHT22;44716;51.022;6.818;2023-10-09T03:52:55;23.90;55.50
58933;DHT22;44716;51.022;6.818;2023-10-09T03:55:21;24.00;55.60
58933;DHT22;44716;51.022;6.818;2023-10-09T03:57:53;24.00;55.60
58933;DHT22;44716;51.022;6.818;2023-10-09T04:00:19;24.00;55.60
58933;DHT22;44716;51.022;6.818;2023-10-09T04:02:54;23.90;55.60
58933;DHT22;44716;51.022;6.818;2023-10-09T04:05:20;23.90;55.60
58933;DHT22;44716;51.022;6.818;2023-10-09T04:07:45;23.90;55.60
58933;DHT22;44716;51.022;6.818;2023-10-09T04:10:11;23.90;55.70
58933;DHT22;44716;51.022;6.818;2023-10-09T04:12:59;23.90;55.70
58933;DHT22;44716;51.022;6.818;2023-10-09T04:15:26;23.90;55.70
58933;DHT22;44716;51.022;6.818;2023-10-09T04:17:55;23.90;55.80
58933;DHT22;44716;51.022;6.818;2023-10-09T04:20:22;23.90;56.00
58933;DHT22;44716;51.022;6.818;2023-10-09T04:22:47;23.90;56.10
58933;DHT22;44716;51.022;6.818;2023-10-09T04:25:16;23.90;56.10
58933;DHT22;44716;51.022;6.818;2023-10-09T04:28:00;23.80;56.20
58933;DHT22;44716;51.022;6.818;2023-10-09T04:30:44;23.80;56.20
58933;DHT22;44716;51.022;6.818;2023-10-09T04:33:19;23.80;56.40
58933;DHT22;44716;51.022;6.818;2023-10-09T04:38:49;23.80;56.40
58933;DHT22;44716;51.022;6.818;2023-10-09T04:41:29;23.80;56.40
58933;DHT22;44716;51.022;6.818;2023-10-09T04:44:00;23.80;56.40
58933;DHT22;44716;51.022;6.818;2023-10-09T04:46:50;23.80;56.40
58933;DHT22;44716;51.022;6.818;2023-10-09T04:49:35;23.80;56.50
58933;DHT22;44716;51.022;6.818;2023-10-09T04:52:13;23.80;56.40
58933;DHT22;44716;51.022;6.818;2023-10-09T04:54:54;23.80;56.50
58933;DHT22;44716;51.022;6.818;2023-10-09T04:57:38;23.80;56.50
58933;DHT22;44716;51.022;6.818;2023-10-09T05:00:11;23.80;56.50
58933;DHT22;44716;51.022;6.818;2023-10-09T05:02:53;23.80;56.50
58933;DHT22;44716;51.022;6.818;2023-10-09T05:05:25;23.80;56.50
58933;DHT22;44716;51.022;6.818;2023-10-09T05:08:10;23.80;56.50
58933;DHT22;44716;51.022;6.818;2023-10-09T05:18:39;23.80;56.60
58933;DHT22;44716;51.022;6.818;2023-10-09T05:21:04;23.80;56.60
58933;DHT22;44716;51.022;6.818;2023-10-09T05:23:41;23.90;56.60
58933;DHT22;44716;51.022;6.818;2023-10-09T05:26:16;23.80;56.60
58933;DHT22;44716;51.022;6.818;2023-10-09T05:29:01;23.80;56.60
58933;DHT22;44716;51.022;6.818;2023-10-09T05:31:44;23.80;56.60
58933;DHT22;44716;51.022;6.818;2023-10-09T05:34:10;23.90;56.70
58933;DHT22;44716;51.022;6.818;2023-10-09T05:36:37;23.90;56.70
58933;DHT22;44716;51.022;6.818;2023-10-09T05:39:03;23.90;56.70
58933;DHT22;44716;51.022;6.818;2023-10-09T05:41:55;23.90;56.60
58933;DHT22;44716;51.022;6.818;2023-10-09T05:44:35;23.90;56.70
58933;DHT22;44716;51.022;6.818;2023-10-09T05:47:19;23.90;56.60
58933;DHT22;44716;51.022;6.818;2023-10-09T05:49:57;23.90;56.70
58933;DHT22;44716;51.022;6.818;2023-10-09T05:52:34;23.90;56.70
58933;DHT22;44716;51.022;6.818;2023-10-09T05:55:03;23.90;56.70
58933;DHT22;44716;51.022;6.818;2023-10-09T05:57:46;23.90;56.70
58933;DHT22;44716;51.022;6.818;2023-10-09T06:00:24;23.80;56.70
58933;DHT22;44716;51.022;6.818;2023-10-09T06:03:09;23.80;56.80
58933;DHT22;44716;51.022;6.818;2023-10-09T06:05:47;23.80;56.90
58933;DHT22;44716;51.022;6.818;2023-10-09T06:08:19;23.80;56.80
58933;DHT22;44716;51.022;6.818;2023-10-09T06:11:03;23.80;56.90
58933;DHT22;44716;51.022;6.818;2023-10-09T06:13:52;23.80;57.40
58933;DHT22;44716;51.022;6.818;2023-10-09T06:16:38;23.90;57.00
58933;DHT22;44716;51.022;6.818;2023-10-09T06:19:15;23.90;56.90
58933;DHT22;44716;51.022;6.818;2023-10-09T06:22:08;23.90;56.90
58933;DHT22;44716;51.022;6.818;2023-10-09T06:24:52;23.90;57.10
58933;DHT22;44716;51.022;6.818;2023-10-09T06:27:18;23.90;57.10
58933;DHT22;44716;51.022;6.818;2023-10-09T06:29:55;24.00;57.20
58933;DHT22;44716;51.022;6.818;2023-10-09T06:32:42;24.00;57.20
58933;DHT22;44716;51.022;6.818;2023-10-09T06:35:26;24.00;57.00
58933;DHT22;44716;51.022;6.818;2023-10-09T06:37:58;24.10;57.10
58933;DHT22;44716;51.022;6.818;2023-10-09T06:40:33;24.10;57.10
58933;DHT22;44716;51.022;6.818;2023-10-09T06:43:08;24.10;57.00
58933;DHT22;44716;51.022;6.818;2023-10-09T06:45:45;24.10;56.80
58933;DHT22;44716;51.022;6.818;2023-10-09T06:48:11;24.10;56.80
58933;DHT22;44716;51.022;6.818;2023-10-09T06:51:16;24.10;56.80
58933;DHT22;44716;51.022;6.818;2023-10-09T06:53:53;24.10;56.80
58933;DHT22;44716;51.022;6.818;2023-10-09T07:01:29;24.10;56.60
58933;DHT22;44716;51.022;6.818;2023-10-09T07:04:11;24.10;56.50
58933;DHT22;44716;51.022;6.818;2023-10-09T07:06:56;24.20;56.50
58933;DHT22;44716;51.022;6.818;2023-10-09T07:09:22;24.20;56.50
58933;DHT22;44716;51.022;6.818;2023-10-09T07:11:51;24.20;56.60
58933;DHT22;44716;51.022;6.818;2023-10-09T07:14:21;24.20;56.50
58933;DHT22;44716;51.022;6.818;2023-10-09T07:16:59;24.20;57.20
58933;DHT22;44716;51.022;6.818;2023-10-09T07:19:43;24.10;56.60
58933;DHT22;44716;51.022;6.818;2023-10-09T07:22:09;24.20;56.60
58933;DHT22;44716;51.022;6.818;2023-10-09T07:24:47;24.10;56.50
58933;DHT22;44716;51.022;6.818;2023-10-09T07:27:19;24.10;56.50
58933;DHT22;44716;51.022;6.818;2023-10-09T07:30:05;24.20;56.60
58933;DHT22;44716;51.022;6.818;2023-10-09T07:32:50;24.10;56.50
58933;DHT22;44716;51.022;6.818;2023-10-09T07:35:17;24.10;56.60
58933;DHT22;44716;51.022;6.818;2023-10-09T07:38:03;24.10;56.60
58933;DHT22;44716;51.022;6.818;2023-10-09T07:40:28;24.10;56.50
58933;DHT22;44716;51.022;6.818;2023-10-09T07:42:57;24.20;56.70
58933;DHT22;44716;51.022;6.818;2023-10-09T07:45:30;24.10;56.60
58933;DHT22;44716;51.022;6.818;2023-10-09T07:47:55;24.10;56.50
58933;DHT22;44716;51.022;6.818;2023-10-09T07:50:38;24.10;56.60
58933;DHT22;44716;51.022;6.818;2023-10-09T07:53:09;24.10;56.60
58933;DHT22;44716;51.022;6.818;2023-10-09T07:55:46;24.10;56.60
58933;DHT22;44716;51.022;6.818;2023-10-09T07:58:29;24.10;56.70
58933;DHT22;44716;51.022;6.818;2023-10-09T08:00:56;24.10;56.70
58933;DHT22;44716;51.022;6.818;2023-10-09T08:03:46;24.10;56.80
58933;DHT22;44716;51.022;6.818;2023-10-09T08:06:12;24.10;56.90
58933;DHT22;44716;51.022;6.818;2023-10-09T08:08:57;24.10;56.80
58933;DHT22;44716;51.022;6.818;2023-10-09T08:11:47;24.10;56.80
58933;DHT22;44716;51.022;6.818;2023-10-09T08:14:31;24.10;56.80
58933;DHT22;44716;51.022;6.818;2023-10-09T08:17:00;24.10;56.80
58933;DHT22;44716;51.022;6.818;2023-10-09T08:19:48;24.10;56.70
58933;DHT22;44716;51.022;6.818;2023-10-09T08:24:48;24.10;56.80
58933;DHT22;44716;51.022;6.818;2023-10-09T08:27:22;24.10;56.80
58933;DHT22;44716;51.022;6.818;2023-10-09T08:30:12;24.10;56.80
58933;DHT22;44716;51.022;6.818;2023-10-09T08:32:44;24.10;56.80
58933;DHT22;44716;51.022;6.818;2023-10-09T08:35:32;24.10;56.80
58933;DHT22;44716;51.022;6.818;2023-10-09T08:38:02;24.10;56.70
58933;DHT22;44716;51.022;6.818;2023-10-09T08:40:34;24.10;56.70
58933;DHT22;44716;51.022;6.818;2023-10-09T08:43:14;24.20;56.60
58933;DHT22;44716;51.022;6.818;2023-10-09T08:45:41;24.10;56.60
58933;DHT22;44716;51.022;6.818;2023-10-09T08:48:10;24.10;56.60
58933;DHT22;44716;51.022;6.818;2023-10-09T08:50:44;24.10;56.70
58933;DHT22;44716;51.022;6.818;2023-10-09T08:53:10;24.20;56.80
58933;DHT22;44716;51.022;6.818;2023-10-09T08:55:36;24.20;56.70
58933;DHT22;44716;51.022;6.818;2023-10-09T08:58:02;24.20;56.70
58933;DHT22;44716;51.022;6.818;2023-10-09T09:00:31;24.20;56.70
58933;DHT22;44716;51.022;6.818;2023-10-09T09:02:58;24.20;56.70
58933;DHT22;44716;51.022;6.818;2023-10-09T09:05:25;24.20;56.60
58933;DHT22;44716;51.022;6.818;2023-10-09T09:07:54;24.20;56.60
58933;DHT22;44716;51.022;6.818;2023-10-09T09:10:30;24.20;56.60
58933;DHT22;44716;51.022;6.818;2023-10-09T09:13:03;24.20;56.80
58933;DHT22;44716;51.022;6.818;2023-10-09T09:15:29;24.20;56.80
58933;DHT22;44716;51.022;6.818;2023-10-09T09:18:03;24.20;56.70
58933;DHT22;44716;51.022;6.818;2023-10-09T09:20:31;24.20;56.60
58933;DHT22;44716;51.022;6.818;2023-10-09T09:23:00;24.20;56.60
58933;DHT22;44716;51.022;6.818;2023-10-09T09:25:40;24.30;56.80
58933;DHT22;44716;51.022;6.818;2023-10-09T09:28:10;24.30;56.70
58933;DHT22;44716;51.022;6.818;2023-10-09T09:30:38;24.30;56.80
58933;DHT22;44716;51.022;6.818;2023-10-09T09:33:18;24.30;56.70
58933;DHT22;44716;51.022;6.818;2023-10-09T09:35:55;24.30;56.80
58933;DHT22;44716;51.022;6.818;2023-10-09T09:38:23;24.30;56.70
58933;DHT22;44716;51.022;6.818;2023-10-09T09:40:51;24.30;56.80
58933;DHT22;44716;51.022;6.818;2023-10-09T09:43:19;24.30;56.90
58933;DHT22;44716;51.022;6.818;2023-10-09T09:45:48;24.40;56.80
58933;DHT22;44716;51.022;6.818;2023-10-09T09:48:16;24.30;56.80
58933;DHT22;44716;51.022;6.818;2023-10-09T09:50:42;24.30;56.80
58933;DHT22;44716;51.022;6.818;2023-10-09T09:53:12;24.30;57.00
58933;DHT22;44716;51.022;6.818;2023-10-09T09:55:42;24.30;56.80
58933;DHT22;44716;51.022;6.818;2023-10-09T09:58:17;24.30;57.10
58933;DHT22;44716;51.022;6.818;2023-10-09T10:00:46;24.20;56.40
58933;DHT22;44716;51.022;6.818;2023-10-09T10:03:22;24.20;56.00
58933;DHT22;44716;51.022;6.818;2023-10-09T10:05:50;24.20;56.10
58933;DHT22;44716;51.022;6.818;2023-10-09T10:08:19;24.20;56.20
58933;DHT22;44716;51.022;6.818;2023-10-09T10:10:46;24.20;56.10
58933;DHT22;44716;51.022;6.818;2023-10-09T10:13:17;24.20;56.00
58933;DHT22;44716;51.022;6.818;2023-10-09T10:16:00;24.10;55.60
58933;DHT22;44716;51.022;6.818;2023-10-09T10:18:51;24.20;55.80
58933;DHT22;44716;51.022;6.818;2023-10-09T10:21:18;24.10;55.80
58933;DHT22;44716;51.022;6.818;2023-10-09T10:23:58;24.20;55.30
58933;DHT22;44716;51.022;6.818;2023-10-09T10:26:36;24.10;55.20
58933;DHT22;44716;51.022;6.818;2023-10-09T10:29:17;24.10;54.90
58933;DHT22;44716;51.022;6.818;2023-10-09T10:34:17;24.20;54.50
58933;DHT22;44716;51.022;6.818;2023-10-09T10:36:52;24.10;54.30
58933;DHT22;44716;51.022;6.818;2023-10-09T10:39:24;24.10;54.20
58933;DHT22;44716;51.022;6.818;2023-10-09T10:42:08;24.10;54.20
58933;DHT22;44716;51.022;6.818;2023-10-09T10:44:56;24.10;54.30
58933;DHT22;44716;51.022;6.818;2023-10-09T10:47:25;24.10;54.20
58933;DHT22;44716;51.022;6.818;2023-10-09T10:49:57;24.10;54.30
58933;DHT22;44716;51.022;6.818;2023-10-09T10:52:24;24.10;54.50
58933;DHT22;44716;51.022;6.818;2023-10-09T10:55:13;24.10;55.10
58933;DHT22;44716;51.022;6.818;2023-10-09T10:57:57;24.10;54.10
58933;DHT22;44716;51.022;6.818;2023-10-09T11:00:35;24.10;53.60
58933;DHT22;44716;51.022;6.818;2023-10-09T11:03:20;24.10;53.50
58933;DHT22;44716;51.022;6.818;2023-10-09T11:06:00;24.00;53.90
58933;DHT22;44716;51.022;6.818;2023-10-09T11:08:40;24.00;54.00
58933;DHT22;44716;51.022;6.818;2023-10-09T11:11:15;24.00;54.00
58933;DHT22;44716;51.022;6.818;2023-10-09T11:13:41;24.00;54.00
58933;DHT22;44716;51.022;6.818;2023-10-09T11:16:19;24.00;54.10
58933;DHT22;44716;51.022;6.818;2023-10-09T11:19:00;24.00;54.00
58933;DHT22;44716;51.022;6.818;2023-10-09T11:21:37;24.10;54.00
58933;DHT22;44716;51.022;6.818;2023-10-09T11:24:07;24.10;53.90
58933;DHT22;44716;51.022;6.818;2023-10-09T11:26:51;24.10;53.80
58933;DHT22;44716;51.022;6.818;2023-10-09T11:29:21;24.10;54.00
58933;DHT22;44716;51.022;6.818;2023-10-09T11:34:27;24.00;54.70
58933;DHT22;44716;51.022;6.818;2023-10-09T11:37:02;24.10;55.00
58933;DHT22;44716;51.022;6.818;2023-10-09T11:39:28;24.10;55.00
58933;DHT22;44716;51.022;6.818;2023-10-09T11:42:06;24.10;55.10
58933;DHT22;44716;51.022;6.818;2023-10-09T11:44:39;24.10;55.30
58933;DHT22;44716;51.022;6.818;2023-10-09T11:47:06;24.10;55.30
58933;DHT22;44716;51.022;6.818;2023-10-09T11:50:02;24.10;55.40
58933;DHT22;44716;51.022;6.818;2023-10-09T11:52:28;24.10;55.50
58933;DHT22;44716;51.022;6.818;2023-10-09T11:54:57;24.10;55.60
58933;DHT22;44716;51.022;6.818;2023-10-09T11:57:24;24.20;55.60
58933;DHT22;44716;51.022;6.818;2023-10-09T11:59:56;24.20;55.70
58933;DHT22;44716;51.022;6.818;2023-10-09T12:02:22;24.20;55.60
58933;DHT22;44716;51.022;6.818;2023-10-09T12:04:47;24.30;55.80
58933;DHT22;44716;51.022;6.818;2023-10-09T12:07:14;24.30;55.90
58933;DHT22;44716;51.022;6.818;2023-10-09T12:09:40;24.30;55.90
58933;DHT22;44716;51.022;6.818;2023-10-09T12:12:06;24.30;55.90
58933;DHT22;44716;51.022;6.818;2023-10-09T12:14:33;24.30;55.90
58933;DHT22;44716;51.022;6.818;2023-10-09T12:17:06;24.30;55.90
58933;DHT22;44716;51.022;6.818;2023-10-09T12:19:32;24.30;55.90
58933;DHT22;44716;51.022;6.818;2023-10-09T12:21:58;24.30;55.90
58933;DHT22;44716;51.022;6.818;2023-10-09T12:24:26;24.30;56.10
58933;DHT22;44716;51.022;6.818;2023-10-09T12:26:51;24.30;56.10
58933;DHT22;44716;51.022;6.818;2023-10-09T12:29:18;24.40;56.20
58933;DHT22;44716;51.022;6.818;2023-10-09T12:31:45;24.40;56.20
58933;DHT22;44716;51.022;6.818;2023-10-09T12:34:10;24.40;56.20
58933;DHT22;44716;51.022;6.818;2023-10-09T12:36:50;24.40;56.20
58933;DHT22;44716;51.022;6.818;2023-10-09T12:39:15;24.40;56.20
58933;DHT22;44716;51.022;6.818;2023-10-09T12:41:44;24.40;56.20
58933;DHT22;44716;51.022;6.818;2023-10-09T12:44:10;24.40;56.10
58933;DHT22;44716;51.022;6.818;2023-10-09T12:46:45;24.40;56.10
58933;DHT22;44716;51.022;6.818;2023-10-09T12:49:20;24.40;56.10
58933;DHT22;44716;51.022;6.818;2023-10-09T12:51:52;24.40;56.10
58933;DHT22;44716;51.022;6.818;2023-10-09T12:54:18;24.40;56.00
58933;DHT22;44716;51.022;6.818;2023-10-09T12:56:45;24.40;56.10
58933;DHT22;44716;51.022;6.818;2023-10-09T12:59:14;24.40;56.10
58933;DHT22;44716;51.022;6.818;2023-10-09T13:01:40;24.40;56.10
58933;DHT22;44716;51.022;6.818;2023-10-09T13:04:12;24.40;56.10
58933;DHT22;44716;51.022;6.818;2023-10-09T13:06:41;24.40;56.10
58933;DHT22;44716;51.022;6.818;2023-10-09T13:09:12;24.40;56.10
58933;DHT22;44716;51.022;6.818;2023-10-09T13:11:39;24.40;56.10
58933;DHT22;44716;51.022;6.818;2023-10-09T13:14:06;24.40;56.10
58933;DHT22;44716;51.022;6.818;2023-10-09T13:16:45;24.40;56.10
58933;DHT22;44716;51.022;6.818;2023-10-09T13:19:10;24.40;56.10
58933;DHT22;44716;51.022;6.818;2023-10-09T13:21:36;24.40;56.10
58933;DHT22;44716;51.022;6.818;2023-10-09T13:24:06;24.40;56.10
58933;DHT22;44716;51.022;6.818;2023-10-09T13:26:38;24.40;56.10
58933;DHT22;44716;51.022;6.818;2023-10-09T13:29:04;24.40;56.10
58933;DHT22;44716;51.022;6.818;2023-10-09T13:31:34;24.40;56.10
58933;DHT22;44716;51.022;6.818;2023-10-09T13:34:06;24.40;56.10
58933;DHT22;44716;51.022;6.818;2023-10-09T13:36:32;24.40;56.10
58933;DHT22;44716;51.022;6.818;2023-10-09T13:39:00;24.40;56.10
58933;DHT22;44716;51.022;6.818;2023-10-09T13:41:45;24.40;56.10
58933;DHT22;44716;51.022;6.818;2023-10-09T13:44:13;24.40;56.20
58933;DHT22;44716;51.022;6.818;2023-10-09T13:46:39;24.40;56.20
58933;DHT22;44716;51.022;6.818;2023-10-09T13:49:11;24.40;56.20
58933;DHT22;44716;51.022;6.818;2023-10-09T13:51:39;24.40;56.20
58933;DHT22;44716;51.022;6.818;2023-10-09T13:54:15;24.40;56.20
58933;DHT22;44716;51.022;6.818;2023-10-09T13:56:54;24.40;56.10
58933;DHT22;44716;51.022;6.818;2023-10-09T13:59:20;24.40;56.10
58933;DHT22;44716;51.022;6.818;2023-10-09T14:01:48;24.40;56.10
58933;DHT22;44716;51.022;6.818;2023-10-09T14:04:14;24.50;56.10
58933;DHT22;44716;51.022;6.818;2023-10-09T14:06:44;24.50;56.00
58933;DHT22;44716;51.022;6.818;2023-10-09T14:09:10;24.50;56.00
